Date,TemperatureHighF,TemperatureAvgF,TemperatureLowF,DewpointHighF,DewpointAvgF,DewpointLowF,HumidityHigh,HumidityAvg,HumidityLow,PressureMaxIn,PressureMinIn,WindSpeedMaxMPH,WindSpeedAvgMPH,GustSpeedMaxMPH,PrecipitationSumIn
2013-2-1,60,54,46,60,53,46,99,97,89,29.97,29.63,5,2,6,0.00
2013-2-2,56,53,50,46,42,38,81,66,58,29.55,29.36,38,20,38,2.24
2013-2-3,52,49,43,34,30,28,69,51,41,30.01,29.69,23,7,26,1.87
2013-2-4,58,48,39,44,39,37,98,76,51,30.12,30.03,6,3,8,0.00
2013-2-5,65,51,39,47,43,39,99,78,52,29.95,29.77,12,3,15,0.05
2013-2-6,54,52,50,39,37,34,67,58,47,29.60,29.50,34,20,34,0.00
2013-2-7,55,52,49,40,30,20,71,49,28,29.76,29.61,14,10,21,0.00
2013-2-8,52,48,43,41,39,38,88,72,61,29.68,29.60,13,5,18,0.00
2013-2-9,48,43,37,37,33,26,90,70,49,29.90,29.79,15,3,17,0.00
2013-2-10,64,54,46,50,44,37,85,70,39,29.79,29.47,17,9,20,0.00
2013-2-11,56,52,48,44,36,32,85,58,45,29.44,29.34,25,10,31,0.08
2013-2-12,52,50,47,41,38,32,75,65,49,29.66,29.40,27,10,30,0.06
2013-2-13,59,52,47,42,40,38,78,66,48,29.78,29.67,8,4,11,0.00
2013-2-14,58,50,45,46,44,43,93,83,63,29.93,29.88,5,2,5,0.00
2013-2-15,57,51,43,53,46,42,99,83,71,29.89,29.83,10,5,11,0.00
2013-2-16,65,51,46,50,48,45,99,90,57,29.92,29.83,4,2,4,0.00
2013-2-17,55,52,46,54,52,46,99,98,91,29.77,29.66,4,2,4,0.00
2013-2-18,56,54,51,56,54,51,99,99,99,29.66,29.60,4,2,5,0.30
2013-2-19,59,55,51,55,48,42,99,80,56,29.72,29.64,9,6,11,0.00
2013-2-20,46,46,46,41,41,40,83,82,81,29.65,29.63,4,3,4,0.00